Pacific Dawn — 3ECJ9 — position and weather

sailwx.info

Track history (hours):
 
Tides and Currents Weather Stations Pressure Air Temp Water Temp Dewpoint Dewpoint Depression Visibility Wind Speed Wind Dir Waves Ship Positions

Pacific Dawn

Last reported at 2014-Oct-11 14:26 UTC. Time now 2014-Oct-23 09:28 UTC.
Position N 34°17' E 130°30'.
Warning: this ship's position is 11 days out of date.

Length 239 m; draft 11.5 m.

Type: Ship. MMSI: 371361000.

Date/timePositionNaut miles runAvg speedWind from/ knotsBaromVisibWave heightAir tempDewpointWater temp
2014-Oct-11 14:26N 34°17' E 130°30'8 9.5
2014-Oct-11 13:33N 34°10' E 130°35'1110.8
2014-Oct-11 12:33N 34°04' E 130°45'88 9.7
2014-Oct-11 03:28N 34°01' E 132°32'  
2014-Oct-08 22:16N 33°46' E 132°23'83 8.4
2014-Oct-08 12:20N 32°23' E 132°10'7 8.6
2014-Oct-08 11:33N 32°17' E 132°07'10 3.4
2014-Oct-08 08:33N 32°07' E 132°03'1 1.1
2014-Oct-08 07:33N 32°06' E 132°04'1 0.9
2014-Oct-08 06:33N 32°06' E 132°05'1 0.7
2014-Oct-08 05:33N 32°05' E 132°05'1 0.6
2014-Oct-08 04:33N 32°05' E 132°06'0 0.4
2014-Oct-08 03:33N 32°05' E 132°06'0 0.4
2014-Oct-08 02:33N 32°04' E 132°07'0 0.4
2014-Oct-08 01:29N 32°04' E 132°07'0 0.1
2014-Oct-08 00:34N 32°04' E 132°07'0 0.1
2014-Oct-07 23:33N 32°04' E 132°07'0 0.2
2014-Oct-07 22:33N 32°04' E 132°07'  
2014-Oct-05 06:31N 29°51' E 122°58'7 5.7
2014-Oct-05 05:17N 29°48' E 122°50'4 5.6
2014-Oct-05 04:30N 29°46' E 122°46'6 5.8
2014-Oct-05 03:31N 29°44' E 122°40'7 7.0
2014-Oct-05 02:33N 29°40' E 122°34'4 0.4
2014-Oct-04 16:25N 29°38' E 122°30'0 0.0
2014-Oct-04 15:13N 29°38' E 122°30'0 0.0
2014-Oct-04 02:31N 29°38' E 122°30'0 0.1
2014-Oct-03 22:31N 29°38' E 122°30'0 0.0
2014-Oct-03 20:19N 29°38' E 122°30'0 0.1
2014-Oct-03 18:25N 29°38' E 122°30'0 0.1
2014-Oct-03 17:07N 29°38' E 122°30'0 0.0
2014-Oct-03 16:31N 29°38' E 122°30'0 0.1
2014-Oct-03 15:31N 29°38' E 122°30'0 0.0
2014-Oct-03 14:31N 29°38' E 122°30'0 0.0
2014-Oct-03 09:19N 29°38' E 122°30'0 0.0
2014-Oct-03 05:31N 29°38' E 122°30'0 0.0
2014-Oct-02 19:07N 29°38' E 122°30'0 0.0
2014-Oct-02 18:25N 29°38' E 122°30'0 0.0
2014-Oct-02 16:19N 29°38' E 122°30'0 0.0
2014-Oct-02 08:31N 29°38' E 122°30'0 0.0
2014-Oct-02 04:13N 29°38' E 122°30'0 0.0
2014-Oct-02 03:25N 29°38' E 122°30'0 0.1
2014-Oct-02 02:13N 29°38' E 122°30'0 0.0
2014-Oct-01 23:13N 29°38' E 122°30'0 0.0
2014-Oct-01 18:25N 29°38' E 122°30'0 0.0
2014-Oct-01 15:31N 29°38' E 122°30'  
Track history (hours):
 
Tides and Currents Weather Stations Pressure Air Temp Water Temp Dewpoint Dewpoint Depression Visibility Wind Speed Wind Dir Waves Ship Positions

Pacific Dawn

Last reported at 2014-Oct-11 14:26 UTC. Time now 2014-Oct-23 09:28 UTC.
Position N 34°17' E 130°30'.
Warning: this ship's position is 11 days out of date.

Length 239 m; draft 11.5 m.

Type: Ship. MMSI: 371361000.

Date/timePositionNaut miles runAvg speedWind from/ knotsBaromVisibWave heightAir tempDewpointWater temp
2014-Oct-11 14:26N 34°17' E 130°30'8 9.5
2014-Oct-11 13:33N 34°10' E 130°35'1110.8
2014-Oct-11 12:33N 34°04' E 130°45'88 9.7
2014-Oct-11 03:28N 34°01' E 132°32'  
2014-Oct-08 22:16N 33°46' E 132°23'83 8.4
2014-Oct-08 12:20N 32°23' E 132°10'7 8.6
2014-Oct-08 11:33N 32°17' E 132°07'10 3.4
2014-Oct-08 08:33N 32°07' E 132°03'1 1.1
2014-Oct-08 07:33N 32°06' E 132°04'1 0.9
2014-Oct-08 06:33N 32°06' E 132°05'1 0.7
2014-Oct-08 05:33N 32°05' E 132°05'1 0.6
2014-Oct-08 04:33N 32°05' E 132°06'0 0.4
2014-Oct-08 03:33N 32°05' E 132°06'0 0.4
2014-Oct-08 02:33N 32°04' E 132°07'0 0.4
2014-Oct-08 01:29N 32°04' E 132°07'0 0.1
2014-Oct-08 00:34N 32°04' E 132°07'0 0.1
2014-Oct-07 23:33N 32°04' E 132°07'0 0.2
2014-Oct-07 22:33N 32°04' E 132°07'  
2014-Oct-05 06:31N 29°51' E 122°58'7 5.7
2014-Oct-05 05:17N 29°48' E 122°50'4 5.6
2014-Oct-05 04:30N 29°46' E 122°46'6 5.8
2014-Oct-05 03:31N 29°44' E 122°40'7 7.0
2014-Oct-05 02:33N 29°40' E 122°34'4 0.4
2014-Oct-04 16:25N 29°38' E 122°30'0 0.0
2014-Oct-04 15:13N 29°38' E 122°30'0 0.0
2014-Oct-04 02:31N 29°38' E 122°30'0 0.1
2014-Oct-03 22:31N 29°38' E 122°30'0 0.0
2014-Oct-03 20:19N 29°38' E 122°30'0 0.1
2014-Oct-03 18:25N 29°38' E 122°30'0 0.1
2014-Oct-03 17:07N 29°38' E 122°30'0 0.0
2014-Oct-03 16:31N 29°38' E 122°30'0 0.1
2014-Oct-03 15:31N 29°38' E 122°30'0 0.0
2014-Oct-03 14:31N 29°38' E 122°30'0 0.0
2014-Oct-03 09:19N 29°38' E 122°30'0 0.0
2014-Oct-03 05:31N 29°38' E 122°30'0 0.0
2014-Oct-02 19:07N 29°38' E 122°30'0 0.0
2014-Oct-02 18:25N 29°38' E 122°30'0 0.0
2014-Oct-02 16:19N 29°38' E 122°30'0 0.0
2014-Oct-02 08:31N 29°38' E 122°30'0 0.0
2014-Oct-02 04:13N 29°38' E 122°30'0 0.0
2014-Oct-02 03:25N 29°38' E 122°30'0 0.1
2014-Oct-02 02:13N 29°38' E 122°30'0 0.0
2014-Oct-01 23:13N 29°38' E 122°30'0 0.0
2014-Oct-01 18:25N 29°38' E 122°30'0 0.0
2014-Oct-01 15:31N 29°38' E 122°30'  

Dump ship's entire track history